Quincy, Indiana
Current Conditions -  °F | °C
As of 6:55 PM on Saturday 25 Oct 2014 (Local Time) from K4I7 Reporting Station
Clear Clear  
Wind Chill: 72°   Ceiling: Unl
Heat Index: 72°   Visibility: 10mi
Dew Point: 46°   Wind: 0mph
Humidity: 41%   Direction: NA
Pressure: 29.95"   Gusts: NA
Location:  39.45°N, 86.71°W
Report Text: K4I7 252255Z AUTO 00000KT 10SM CLR 22/08 A2995 RMK AO2
Loading
Personal Weather Stations






























Interactive Weather Map
Tropical Storm Tracking
New forecast layout! Learn more

10-Day Weather Forecast

Advertisements
Track Severe Weather on mobile